Time;durP1;ratioP1;P1;durP2;ratioP2;P2;SDS_P1;SDS_P2;PMS_P1;PMS_P2;Temp;Humidity;BMP_temperature;BMP_pressure;BME280_temperature;BME280_humidity;BME280_pressure;Samples;Min_cycle;Max_cycle;Signal;HPM_P1;HPM_P2
2020/12/23 00:01:06;;;;;;;;;;;;;;;27.16;24.62;101566.59;5056437;28;764;-41
2020/12/23 00:03:31;;;;;;;;;;;;;;;26.89;25.21;101563.94;5056563;28;827;-41
2020/12/23 00:05:57;;;;;;;;;;;;;;;27.45;24.58;101568.88;5056440;28;940;-41
2020/12/23 00:08:22;;;;;;;;;;;;;;;27.87;23.70;101575.22;5056255;28;819;-41
2020/12/23 00:10:47;;;;;;;;;;;;;;;27.60;24.00;101574.47;5056418;28;852;-41
2020/12/23 00:13:15;;;;;;;;;;;;;;;27.33;24.55;101567.47;5056267;28;780;-42
2020/12/23 00:15:40;;;;;;;;;;;;;;;27.26;24.51;101565.44;5056195;28;830;-42
2020/12/23 00:18:05;;;;;;;;;;;;;;;26.29;26.34;101571.81;5056293;28;897;-38
2020/12/23 00:20:30;;;;;;;;;;;;;;;26.01;26.97;101566.50;5015735;28;1969;-42
2020/12/23 00:22:56;;;;;;;;;;;;;;;26.84;25.51;101560.88;5016249;28;520;-41
2020/12/23 00:25:21;;;;;;;;;;;;;;;27.21;25.02;101562.38;5016891;28;752;-41
2020/12/23 00:27:46;;;;;;;;;;;;;;;27.23;24.87;101559.50;5016463;28;829;-42
2020/12/23 00:30:12;;;;;;;;;;;;;;;27.06;24.98;101561.31;5016766;28;772;-42
2020/12/23 00:32:37;;;;;;;;;;;;;;;27.16;25.03;101556.63;5016562;28;792;-38
2020/12/23 00:35:02;;;;;;;;;;;;;;;26.42;26.07;101549.84;5016390;28;948;-40
2020/12/23 00:37:27;;;;;;;;;;;;;;;26.30;26.56;101546.53;5016429;28;784;-41
2020/12/23 00:39:53;;;;;;;;;;;;;;;27.04;25.27;101541.75;5016154;28;1965;-42
2020/12/23 00:42:21;;;;;;;;;;;;;;;27.36;24.79;101542.84;5016525;28;768;-42
2020/12/23 00:44:46;;;;;;;;;;;;;;;27.31;24.90;101537.09;5024440;28;1235;-42
2020/12/23 00:47:12;;;;;;;;;;;;;;;27.30;24.78;101530.84;5025504;28;1281;-39
2020/12/23 00:49:37;;;;;;;;;;;;;;;27.25;24.68;101535.88;5025370;28;1298;-41
2020/12/23 00:52:02;;;;;;;;;;;;;;;27.24;24.84;101540.44;5023551;28;1262;-42
2020/12/23 00:54:27;;;;;;;;;;;;;;;27.09;25.35;101537.53;5025916;28;1420;-38
2020/12/23 00:56:53;;;;;;;;;;;;;;;27.29;24.96;101536.41;5024374;28;1353;-42
2020/12/23 00:59:18;;;;;;;;;;;;;;;27.64;24.52;101534.44;5026600;28;1968;-39
2020/12/23 01:01:43;;;;;;;;;;;;;;;27.61;24.41;101534.78;5023788;28;1261;-42
2020/12/23 01:04:08;;;;;;;;;;;;;;;27.39;24.54;101529.84;5025972;28;1341;-42
2020/12/23 01:06:34;;;;;;;;;;;;;;;27.34;24.78;101531.38;5022625;28;1442;-41
2020/12/23 01:08:59;;;;;;;;;;;;;;;27.09;25.20;101524.03;5025352;28;1349;-41
2020/12/23 01:11:24;;;;;;;;;;;;;;;27.28;25.09;101516.66;5023771;28;1317;-41
2020/12/23 01:13:50;;;;;;;;;;;;;;;27.77;24.47;101509.66;5025602;28;1297;-41
2020/12/23 01:16:24;;;;;;;;;;;;;;;27.73;24.27;101509.13;5024613;28;1293;-41
2020/12/23 01:18:49;;;;;;;;;;;;;;;27.53;24.66;101507.75;5037765;28;1909;-42
2020/12/23 01:21:15;;;;;;;;;;;;;;;27.24;24.81;101504.50;5067166;28;1305;-40
2020/12/23 01:23:43;;;;;;;;;;;;;;;27.15;24.45;101506.31;5075703;28;800;-39
2020/12/23 01:26:08;;;;;;;;;;;;;;;26.97;24.79;101506.41;5076055;28;817;-40
2020/12/23 01:28:33;;;;;;;;;;;;;;;27.65;23.88;101505.53;5075558;28;791;-39
2020/12/23 01:30:59;;;;;;;;;;;;;;;27.93;23.22;101500.69;5075623;28;774;-36
2020/12/23 01:33:24;;;;;;;;;;;;;;;27.16;24.21;101499.91;5078456;28;800;-41
2020/12/23 01:35:49;;;;;;;;;;;;;;;26.98;24.42;101494.59;5069970;28;998;-40
2020/12/23 01:38:15;;;;;;;;;;;;;;;26.72;25.35;101498.22;5059055;28;809;-41
2020/12/23 01:40:40;;;;;;;;;;;;;;;27.62;23.93;101498.63;5059131;28;1910;-41
2020/12/23 01:43:08;;;;;;;;;;;;;;;27.39;24.07;101494.72;5058891;28;764;-42
2020/12/23 01:45:34;;;;;;;;;;;;;;;26.91;24.53;101494.41;5077415;28;1242;-35
2020/12/23 01:47:59;;;;;;;;;;;;;;;26.13;25.89;101483.53;5079064;28;882;-41
2020/12/23 01:50:24;;;;;;;;;;;;;;;26.46;25.77;101488.31;5055797;28;1007;-41
2020/12/23 01:52:53;;;;;;;;;;;;;;;27.48;24.25;101489.31;5058861;28;839;-41
2020/12/23 01:55:18;;;;;;;;;;;;;;;27.04;24.62;101485.88;5058845;28;790;-41
2020/12/23 01:57:43;;;;;;;;;;;;;;;26.83;24.77;101487.13;5040556;28;844;-42
2020/12/23 02:00:09;;;;;;;;;;;;;;;26.43;25.72;101476.00;5058961;28;1971;-34
2020/12/23 02:02:35;;;;;;;;;;;;;;;27.38;24.28;101479.53;5058810;28;867;-42
2020/12/23 02:05:03;;;;;;;;;;;;;;;27.32;24.20;101488.31;5058127;28;1003;-39
2020/12/23 02:07:29;;;;;;;;;;;;;;;26.92;24.54;101489.84;5058528;28;788;-41
2020/12/23 02:09:55;;;;;;;;;;;;;;;26.65;25.01;101500.72;5058549;28;853;-42
2020/12/23 02:12:20;;;;;;;;;;;;;;;27.13;24.69;101511.88;5058457;28;771;-41
2020/12/23 02:14:46;;;;;;;;;;;;;;;27.46;24.16;101507.56;5058752;28;787;-41
2020/12/23 02:17:11;;;;;;;;;;;;;;;27.14;24.47;101500.06;5058143;28;957;-38
2020/12/23 02:19:49;;;;;;;;;;;;;;;26.72;25.01;101487.44;5058087;28;2000;-43
2020/12/23 02:22:15;;;;;;;;;;;;;;;26.29;25.96;101482.81;5057868;28;894;-42
2020/12/23 02:24:41;;;;;;;;;;;;;;;27.22;24.68;101477.66;5073817;28;830;-42
2020/12/23 02:27:06;;;;;;;;;;;;;;;27.49;23.95;101485.63;5058288;28;851;-42
2020/12/23 02:29:31;;;;;;;;;;;;;;;26.83;24.65;101481.72;5058182;28;764;-41
2020/12/23 02:31:56;;;;;;;;;;;;;;;26.70;24.95;101482.19;5058155;28;860;-42
2020/12/23 02:34:22;;;;;;;;;;;;;;;26.57;25.52;101492.59;5058113;28;912;-41
2020/12/23 02:36:47;;;;;;;;;;;;;;;27.31;24.35;101494.69;5057679;28;923;-42
2020/12/23 02:39:12;;;;;;;;;;;;;;;27.21;24.54;101488.63;5057705;28;1901;-41
2020/12/23 02:41:37;;;;;;;;;;;;;;;26.80;24.81;101468.56;5057860;28;680;-42
2020/12/23 02:44:03;;;;;;;;;;;;;;;26.28;25.73;101446.88;5063482;28;1125;-36
2020/12/23 02:46:28;;;;;;;;;;;;;;;26.96;24.86;101473.16;5077739;28;736;-41
2020/12/23 02:48:53;;;;;;;;;;;;;;;27.37;24.12;101471.59;5077929;28;756;-41
2020/12/23 02:51:18;;;;;;;;;;;;;;;26.52;25.57;101475.03;5064573;28;990;-42
2020/12/23 02:53:44;;;;;;;;;;;;;;;26.72;25.01;101480.19;5057585;28;751;-42
2020/12/23 02:56:09;;;;;;;;;;;;;;;26.59;24.90;101491.41;5057513;28;554;-41
2020/12/23 02:58:34;;;;;;;;;;;;;;;26.67;25.32;101487.91;5057491;28;1878;-42
2020/12/23 03:00:59;;;;;;;;;;;;;;;27.32;24.42;101491.00;5057176;28;855;-42
2020/12/23 03:03:25;;;;;;;;;;;;;;;27.07;24.62;101490.09;5057690;28;763;-42
2020/12/23 03:05:50;;;;;;;;;;;;;;;26.64;25.04;101494.47;5057003;28;1030;-42
2020/12/23 03:08:15;;;;;;;;;;;;;;;25.54;26.92;101488.44;5057176;28;814;-42
2020/12/23 03:10:41;;;;;;;;;;;;;;;26.41;25.90;101488.78;5057430;28;811;-41
2020/12/23 03:13:06;;;;;;;;;;;;;;;27.20;24.35;101484.22;5057462;28;837;-40
2020/12/23 03:15:31;;;;;;;;;;;;;;;27.01;24.57;101467.25;5057347;28;736;-41
2020/12/23 03:17:56;;;;;;;;;;;;;;;26.73;24.76;101468.38;5056922;28;1409;-41
2020/12/23 03:20:22;;;;;;;;;;;;;;;25.90;26.42;101463.34;5056597;28;1910;-42
2020/12/23 03:22:47;;;;;;;;;;;;;;;26.80;25.23;101467.72;5057108;28;780;-41
2020/12/23 03:25:12;;;;;;;;;;;;;;;27.33;24.65;101472.91;5057175;28;796;-41
2020/12/23 03:27:38;;;;;;;;;;;;;;;26.81;24.75;101459.44;5056980;28;823;-36
2020/12/23 03:30:03;;;;;;;;;;;;;;;26.60;25.22;101465.28;5056914;28;791;-42
2020/12/23 03:32:29;;;;;;;;;;;;;;;26.01;26.45;101459.53;5057293;28;740;-42
2020/12/23 03:34:54;;;;;;;;;;;;;;;27.16;24.86;101456.69;5056274;28;1025;-41
2020/12/23 03:37:19;;;;;;;;;;;;;;;27.39;24.19;101451.47;5056906;28;831;-42
2020/12/23 03:39:45;;;;;;;;;;;;;;;26.87;24.76;101444.47;5056831;28;1967;-32
2020/12/23 03:42:10;;;;;;;;;;;;;;;26.50;25.25;101443.81;5056323;28;895;-42
2020/12/23 03:44:35;;;;;;;;;;;;;;;25.92;26.60;101442.44;5067137;28;1199;-42
2020/12/23 03:47:00;;;;;;;;;;;;;;;27.06;24.96;101451.44;5076815;28;807;-41
2020/12/23 03:49:26;;;;;;;;;;;;;;;27.34;24.25;101459.25;5076385;28;895;-41
2020/12/23 03:51:51;;;;;;;;;;;;;;;26.78;24.81;101457.94;5059177;28;1006;-41
2020/12/23 03:54:16;;;;;;;;;;;;;;;26.58;24.99;101462.75;5056382;28;772;-41
2020/12/23 03:56:41;;;;;;;;;;;;;;;26.12;26.21;101457.59;5056107;28;851;-40
2020/12/23 03:59:07;;;;;;;;;;;;;;;27.12;24.58;101458.03;5056607;28;1906;-41
2020/12/23 04:01:32;;;;;;;;;;;;;;;26.19;26.32;101457.78;5056579;28;832;-42
2020/12/23 04:03:57;;;;;;;;;;;;;;;26.40;25.67;101452.88;5056424;28;736;-36
2020/12/23 04:06:22;;;;;;;;;;;;;;;26.60;25.25;101452.63;5056084;28;932;-42
2020/12/23 04:08:48;;;;;;;;;;;;;;;26.53;25.25;101454.28;5056265;28;760;-36
2020/12/23 04:11:13;;;;;;;;;;;;;;;25.35;27.34;101458.97;5056724;28;748;-41
2020/12/23 04:13:38;;;;;;;;;;;;;;;26.87;24.94;101464.22;5056378;28;835;-41
2020/12/23 04:16:04;;;;;;;;;;;;;;;26.65;24.85;101469.19;5056524;28;831;-42
2020/12/23 04:18:29;;;;;;;;;;;;;;;26.39;25.62;101464.66;5056213;28;1984;-42
2020/12/23 04:20:54;;;;;;;;;;;;;;;26.48;25.78;101472.81;5055740;28;944;-42
2020/12/23 04:23:19;;;;;;;;;;;;;;;27.04;25.13;101483.19;5056206;28;831;-36
2020/12/23 04:25:45;;;;;;;;;;;;;;;27.22;25.06;101477.66;5056335;28;772;-42
2020/12/23 04:28:10;;;;;;;;;;;;;;;26.64;25.97;101474.75;5056067;28;752;-42
2020/12/23 04:30:35;;;;;;;;;;;;;;;26.40;26.23;101474.47;5056054;28;800;-44
2020/12/23 04:33:00;;;;;;;;;;;;;;;25.41;28.43;101488.81;5055951;28;863;-42
2020/12/23 04:35:27;;;;;;;;;;;;;;;26.65;26.63;101476.44;5055738;28;952;-43
2020/12/23 04:37:52;;;;;;;;;;;;;;;25.34;28.74;101482.34;5056198;28;798;-41
2020/12/23 04:40:18;;;;;;;;;;;;;;;25.90;28.02;101475.97;5056135;28;1901;-44
2020/12/23 04:42:43;;;;;;;;;;;;;;;25.99;27.71;101477.72;5038274;28;773;-42
2020/12/23 04:45:08;;;;;;;;;;;;;;;25.51;28.56;101469.03;5053441;28;1077;-41
2020/12/23 04:47:34;;;;;;;;;;;;;;;24.43;25.47;101463.28;5076439;28;863;-41
2020/12/23 04:49:59;;;;;;;;;;;;;;;21.61;27.17;101450.41;5055926;28;958;-40
2020/12/23 04:52:31;;;;;;;;;;;;;;;21.04;27.39;101454.13;5055907;28;847;-40
2020/12/23 04:54:57;;;;;;;;;;;;;;;21.74;27.57;101468.13;5056063;28;732;-34
2020/12/23 04:57:22;;;;;;;;;;;;;;;22.66;27.42;101464.91;5055775;28;860;-34
2020/12/23 04:59:48;;;;;;;;;;;;;;;23.57;27.43;101468.50;5038363;28;1955;-33
2020/12/23 05:02:13;;;;;;;;;;;;;;;23.86;26.23;101470.31;5038240;28;819;-32
2020/12/23 05:04:39;;;;;;;;;;;;;;;23.53;25.34;101470.63;5055700;28;844;-43
2020/12/23 05:07:05;;;;;;;;;;;;;;;24.56;24.03;101482.63;5058218;28;943;-36
2020/12/23 05:09:30;;;;;;;;;;;;;;;25.04;23.37;101479.84;5059737;28;819;-35
2020/12/23 05:11:56;;;;;;;;;;;;;;;24.94;24.35;101476.41;5058977;28;879;-31
2020/12/23 05:14:21;;;;;;;;;;;;;;;24.96;25.31;101476.25;5041955;28;745;-33
2020/12/23 05:16:46;;;;;;;;;;;;;;;24.83;25.71;101480.94;5059596;28;800;-40
2020/12/23 05:19:12;;;;;;;;;;;;;;;24.48;26.52;101490.59;5059042;28;1987;-34
2020/12/23 05:21:37;;;;;;;;;;;;;;;24.51;26.58;101495.66;5055027;28;1322;-40
2020/12/23 05:24:02;;;;;;;;;;;;;;;24.34;27.07;101489.19;5060537;28;1532;-34
2020/12/23 05:26:28;;;;;;;;;;;;;;;25.07;26.11;101498.41;5079144;28;792;-40
2020/12/23 05:28:53;;;;;;;;;;;;;;;25.29;25.79;101490.06;5061407;28;1307;-39
2020/12/23 05:31:19;;;;;;;;;;;;;;;25.37;25.69;101487.47;5079495;28;791;-35
2020/12/23 05:33:45;;;;;;;;;;;;;;;25.00;26.62;101491.94;5078730;28;883;-35
2020/12/23 05:36:14;;;;;;;;;;;;;;;25.15;26.42;101494.97;5063318;28;844;-37
2020/12/23 05:38:39;;;;;;;;;;;;;;;25.42;26.08;101482.44;5069434;28;1906;-34
2020/12/23 05:41:05;;;;;;;;;;;;;;;25.75;25.34;101467.59;5079003;28;834;-46
2020/12/23 05:43:30;;;;;;;;;;;;;;;25.47;25.67;101478.44;5078967;28;1116;-35
2020/12/23 05:45:56;;;;;;;;;;;;;;;25.02;26.66;101486.41;5078878;28;728;-38
2020/12/23 05:48:22;;;;;;;;;;;;;;;25.02;26.99;101481.88;5078630;28;879;-40
2020/12/23 05:50:47;;;;;;;;;;;;;;;25.85;25.74;101480.97;5070282;28;1058;-40
2020/12/23 05:53:15;;;;;;;;;;;;;;;25.80;25.90;101485.00;5076775;28;864;-33
2020/12/23 05:55:44;;;;;;;;;;;;;;;25.75;25.69;101489.16;5078281;28;542;-36
2020/12/23 05:58:10;;;;;;;;;;;;;;;25.63;25.83;101491.25;5078831;28;526;-35
2020/12/23 06:00:35;;;;;;;;;;;;;;;26.02;25.65;101488.19;5078577;28;1967;-40
2020/12/23 06:03:04;;;;;;;;;;;;;;;26.39;25.31;101497.03;5060961;28;807;-40
2020/12/23 06:05:30;;;;;;;;;;;;;;;25.94;25.80;101496.22;5054606;28;1000;-40
2020/12/23 06:07:57;;;;;;;;;;;;;;;26.02;25.57;101507.06;5040580;28;812;-37
2020/12/23 06:10:22;;;;;;;;;;;;;;;25.96;25.50;101509.56;5040536;28;816;-42
2020/12/23 06:12:47;;;;;;;;;;;;;;;26.49;25.14;101507.72;5040767;28;760;-39
2020/12/23 06:15:15;;;;;;;;;;;;;;;26.61;24.77;101505.59;5040345;28;781;-40
2020/12/23 06:17:41;;;;;;;;;;;;;;;26.23;25.24;101507.69;5057389;28;819;-34
2020/12/23 06:20:06;;;;;;;;;;;;;;;26.19;25.22;101498.25;5040035;28;1983;-40
2020/12/23 06:22:31;;;;;;;;;;;;;;;26.48;25.22;101506.03;5040161;28;828;-35
2020/12/23 06:25:00;;;;;;;;;;;;;;;26.80;24.04;101511.75;5040360;28;831;-36
2020/12/23 06:27:25;;;;;;;;;;;;;;;26.50;24.95;101495.06;5058213;28;739;-36
2020/12/23 06:29:50;;;;;;;;;;;;;;;26.86;24.31;101510.25;5040134;28;792;-35
2020/12/23 06:32:19;;;;;;;;;;;;;;;26.40;24.74;101519.47;5058039;28;776;-35
2020/12/23 06:34:44;;;;;;;;;;;;;;;25.70;25.71;101526.50;5057838;28;828;-30
2020/12/23 06:37:24;;;;;;;;;;;;;;;25.40;25.97;101524.84;5057534;28;951;-34
2020/12/23 06:39:49;;;;;;;;;;;;;;;25.69;25.72;101525.66;5057736;28;1906;-35
2020/12/23 06:42:14;;;;;;;;;;;;;;;25.89;25.71;101526.31;5058272;28;764;-34
2020/12/23 06:44:42;;;;;;;;;;;;;;;26.31;24.80;101528.50;5068526;28;1125;-40
2020/12/23 06:47:20;;;;;;;;;;;;;;;26.14;24.93;101529.22;5077308;28;800;-39
2020/12/23 06:49:46;;;;;;;;;;;;;;;26.11;25.36;101532.22;5077640;28;755;-41
2020/12/23 06:52:24;;;;;;;;;;;;;;;25.93;25.23;101524.16;5057607;28;977;-40
2020/12/23 06:55:10;;;;;;;;;;;;;;;25.74;25.61;101527.91;5057516;28;889;-40
2020/12/23 06:57:38;;;;;;;;;;;;;;;25.53;25.45;101527.16;5056796;28;1651;-40
2020/12/23 07:00:04;;;;;;;;;;;;;;;25.66;24.11;101536.72;5057396;28;1905;-37
2020/12/23 07:02:33;;;;;;;;;;;;;;;25.52;25.47;101536.25;5057503;28;752;-37
2020/12/23 07:04:58;;;;;;;;;;;;;;;25.86;25.24;101534.72;5056879;28;971;-41
2020/12/23 07:07:27;;;;;;;;;;;;;;;26.07;25.02;101527.31;5057823;28;729;-39
2020/12/23 07:09:52;;;;;;;;;;;;;;;26.24;24.88;101529.09;5057115;28;735;-39
2020/12/23 07:12:17;;;;;;;;;;;;;;;25.81;25.51;101531.66;5057197;28;768;-39
2020/12/23 07:15:03;;;;;;;;;;;;;;;25.88;25.21;101535.41;5039931;28;764;-40
2020/12/23 07:17:28;;;;;;;;;;;;;;;26.03;24.25;101522.22;5056963;28;1512;-38
2020/12/23 07:19:54;;;;;;;;;;;;;;;25.73;25.13;101516.25;5056797;28;1906;-40
2020/12/23 07:22:19;;;;;;;;;;;;;;;26.16;24.98;101519.13;5039106;28;859;-41
2020/12/23 07:24:45;;;;;;;;;;;;;;;25.53;25.80;101529.84;5038692;28;1551;-41
2020/12/23 07:27:10;;;;;;;;;;;;;;;25.33;26.67;101520.22;5038913;28;812;-41
2020/12/23 07:29:37;;;;;;;;;;;;;;;25.34;26.39;101524.63;5056237;28;783;-35
2020/12/23 07:32:02;;;;;;;;;;;;;;;25.02;26.72;101518.72;5056628;28;796;-33
2020/12/23 07:34:28;;;;;;;;;;;;;;;25.30;26.53;101524.91;5039160;28;831;-36
2020/12/23 07:36:56;;;;;;;;;;;;;;;25.55;26.04;101538.66;5038996;28;997;-40
2020/12/23 07:39:22;;;;;;;;;;;;;;;25.56;26.06;101532.25;5056104;28;1894;-36
2020/12/23 07:41:54;;;;;;;;;;;;;;;25.23;26.53;101533.72;5056805;28;823;-40
2020/12/23 07:44:19;;;;;;;;;;;;;;;24.85;27.07;101531.94;5064830;28;1187;-41
2020/12/23 07:46:44;;;;;;;;;;;;;;;24.83;27.20;101529.38;5058920;28;724;-40
2020/12/23 07:49:10;;;;;;;;;;;;;;;24.87;27.09;101529.09;5076765;28;854;-40
2020/12/23 07:51:36;;;;;;;;;;;;;;;25.43;26.27;101524.53;5061106;28;971;-38
2020/12/23 07:54:09;;;;;;;;;;;;;;;25.38;26.46;101523.28;5056310;28;760;-36
2020/12/23 07:56:37;;;;;;;;;;;;;;;24.90;26.96;101520.72;5038857;28;1037;-41
2020/12/23 07:59:02;;;;;;;;;;;;;;;24.68;27.36;101520.09;5056180;28;1902;-36
2020/12/23 08:01:28;;;;;;;;;;;;;;;24.76;27.32;101522.03;5056618;28;811;-41
2020/12/23 08:03:53;;;;;;;;;;;;;;;24.57;27.78;101532.72;5038409;28;808;-41
2020/12/23 08:06:22;;;;;;;;;;;;;;;24.41;27.97;101533.34;5056290;28;991;-41
2020/12/23 08:08:47;;;;;;;;;;;;;;;25.00;27.28;101539.53;5056320;28;792;-41
2020/12/23 08:11:13;;;;;;;;;;;;;;;24.69;27.75;101543.34;5056436;28;847;-39
2020/12/23 08:13:38;;;;;;;;;;;;;;;24.67;27.73;101527.31;5056515;28;787;-36
2020/12/23 08:16:12;;;;;;;;;;;;;;;24.48;27.98;101530.06;5056216;28;829;-41
2020/12/23 08:18:38;;;;;;;;;;;;;;;24.92;27.38;101529.53;5056166;28;1910;-38
2020/12/23 08:21:07;;;;;;;;;;;;;;;25.22;26.84;101527.53;5055992;28;983;-41
2020/12/23 08:23:32;;;;;;;;;;;;;;;25.27;26.79;101527.91;5056351;28;819;-36
2020/12/23 08:25:57;;;;;;;;;;;;;;;25.04;26.92;101522.94;5056229;28;816;-41
2020/12/23 08:28:23;;;;;;;;;;;;;;;24.70;27.67;101515.41;5038218;28;839;-38
2020/12/23 08:30:48;;;;;;;;;;;;;;;24.56;27.90;101522.97;5038370;28;748;-41
2020/12/23 08:33:14;;;;;;;;;;;;;;;24.43;28.02;101517.06;5055830;28;806;-41
2020/12/23 08:35:40;;;;;;;;;;;;;;;24.63;27.72;101520.53;5055392;28;967;-42
2020/12/23 08:38:07;;;;;;;;;;;;;;;24.90;27.07;101512.63;5038422;28;823;-37
2020/12/23 08:40:32;;;;;;;;;;;;;;;25.15;26.26;101513.81;5037954;28;1901;-36
2020/12/23 08:42:58;;;;;;;;;;;;;;;24.75;26.95;101505.06;5059972;28;791;-35
2020/12/23 08:45:24;;;;;;;;;;;;;;;24.48;25.36;101501.34;5077135;28;1124;-41
2020/12/23 08:47:49;;;;;;;;;;;;;;;24.78;27.04;101501.22;5080327;28;787;-35
2020/12/23 08:50:15;;;;;;;;;;;;;;;25.01;26.92;101498.16;5075732;28;1001;-35
2020/12/23 08:52:44;;;;;;;;;;;;;;;24.89;26.97;101508.25;5042013;28;1015;-36
2020/12/23 08:55:13;;;;;;;;;;;;;;;25.08;26.89;101504.63;5059714;28;855;-37
2020/12/23 08:57:38;;;;;;;;;;;;;;;25.11;26.75;101492.75;5059555;28;863;-36
2020/12/23 09:00:03;;;;;;;;;;;;;;;25.08;26.83;101496.56;5041985;28;1968;-40
2020/12/23 09:02:29;;;;;;;;;;;;;;;25.06;26.95;101493.16;5059763;28;843;-38
2020/12/23 09:04:54;;;;;;;;;;;;;;;25.15;26.63;101486.03;5041517;28;1198;-35
2020/12/23 09:07:20;;;;;;;;;;;;;;;25.00;26.75;101481.19;5059718;28;840;-35
2020/12/23 09:09:45;;;;;;;;;;;;;;;25.30;26.31;101484.53;5059525;28;806;-37
2020/12/23 09:12:10;;;;;;;;;;;;;;;24.80;26.93;101473.19;5060041;28;843;-35
2020/12/23 09:14:38;;;;;;;;;;;;;;;24.99;26.65;101471.38;5041585;28;1264;-36
2020/12/23 09:17:06;;;;;;;;;;;;;;;24.52;24.20;101478.56;5059160;28;935;-40
2020/12/23 09:19:50;;;;;;;;;;;;;;;24.60;25.63;101468.88;5074003;28;1996;-33
2020/12/23 09:22:26;;;;;;;;;;;;;;;24.54;26.13;101467.63;5066569;28;781;-35
2020/12/23 09:24:51;;;;;;;;;;;;;;;24.61;26.63;101459.81;5099433;28;823;-38
2020/12/23 09:27:17;;;;;;;;;;;;;;;24.60;26.64;101468.88;5099717;28;821;-40
2020/12/23 09:29:43;;;;;;;;;;;;;;;24.24;27.10;101454.28;5099377;28;783;-41
2020/12/23 09:32:08;;;;;;;;;;;;;;;24.37;27.30;101453.13;5099489;28;754;-41
2020/12/23 09:34:33;;;;;;;;;;;;;;;24.66;26.89;101438.69;5099500;28;859;-41
2020/12/23 09:36:58;;;;;;;;;;;;;;;25.20;25.85;101435.28;5062235;28;986;-34
2020/12/23 09:39:24;;;;;;;;;;;;;;;24.85;26.53;101435.06;5059449;28;1906;-38
2020/12/23 09:41:59;;;;;;;;;;;;;;;25.18;25.75;101429.19;5059023;28;748;-37
2020/12/23 09:44:25;;;;;;;;;;;;;;;25.65;25.23;101428.13;5067911;28;1182;-37
2020/12/23 09:46:50;;;;;;;;;;;;;;;25.88;25.75;101433.00;5079027;28;831;-40
2020/12/23 09:49:15;;;;;;;;;;;;;;;25.83;25.58;101439.84;5078948;28;760;-43
2020/12/23 09:51:45;;;;;;;;;;;;;;;25.27;26.46;101425.59;5062625;28;934;-41
2020/12/23 09:54:10;;;;;;;;;;;;;;;25.72;25.70;101422.97;5059627;28;797;-37
2020/12/23 09:56:35;;;;;;;;;;;;;;;25.58;25.57;101415.38;5078903;28;780;-41
2020/12/23 09:59:00;;;;;;;;;;;;;;;25.36;23.47;101420.28;5078690;28;1910;-38
2020/12/23 10:01:26;;;;;;;;;;;;;;;24.58;24.04;101420.59;5078837;28;800;-38
2020/12/23 10:03:51;;;;;;;;;;;;;;;24.18;24.37;101414.53;5078628;28;807;-36
2020/12/23 10:06:16;;;;;;;;;;;;;;;25.59;24.25;101409.00;5066129;28;950;-40
2020/12/23 10:08:41;;;;;;;;;;;;;;;25.90;24.35;101405.88;5058374;28;735;-38
2020/12/23 10:11:07;;;;;;;;;;;;;;;26.04;24.30;101401.78;5058543;28;855;-41
2020/12/23 10:13:32;;;;;;;;;;;;;;;26.14;24.59;101401.66;5058509;28;760;-41
2020/12/23 10:15:57;;;;;;;;;;;;;;;25.90;25.06;101403.19;5058329;28;830;-44
2020/12/23 10:18:22;;;;;;;;;;;;;;;26.23;24.24;101392.59;5058166;28;1096;-39
2020/12/23 10:20:48;;;;;;;;;;;;;;;26.10;23.96;101386.78;5057924;28;1913;-34
2020/12/23 10:23:13;;;;;;;;;;;;;;;25.63;25.37;101389.72;5058219;28;811;-40
2020/12/23 10:25:39;;;;;;;;;;;;;;;25.57;25.78;101398.41;5058099;28;771;-41
2020/12/23 10:28:04;;;;;;;;;;;;;;;26.64;24.36;101393.78;5058227;28;768;-42
2020/12/23 10:30:29;;;;;;;;;;;;;;;26.92;23.98;101396.22;5058057;28;927;-42
2020/12/23 10:32:55;;;;;;;;;;;;;;;26.55;24.12;101390.22;5057930;28;858;-41
2020/12/23 10:35:20;;;;;;;;;;;;;;;26.69;24.29;101390.59;5057887;28;1092;-41
2020/12/23 10:37:45;;;;;;;;;;;;;;;25.48;26.24;101392.09;5058148;28;792;-42
2020/12/23 10:40:10;;;;;;;;;;;;;;;26.39;25.15;101394.53;5057809;28;1902;-38
2020/12/23 10:42:36;;;;;;;;;;;;;;;27.07;24.32;101393.75;5058006;28;798;-41
2020/12/23 10:45:01;;;;;;;;;;;;;;;26.97;24.18;101399.25;5071677;28;1203;-42
2020/12/23 10:47:26;;;;;;;;;;;;;;;26.56;24.41;101389.19;5077690;28;732;-42
2020/12/23 10:49:52;;;;;;;;;;;;;;;26.35;24.99;101379.69;5076808;28;1001;-41
2020/12/23 10:52:18;;;;;;;;;;;;;;;26.08;26.05;101375.31;5057587;28;853;-37
2020/12/23 10:54:43;;;;;;;;;;;;;;;27.02;24.69;101382.59;5057273;28;820;-42
2020/12/23 10:57:09;;;;;;;;;;;;;;;26.97;24.75;101371.41;5057687;28;772;-43
2020/12/23 10:59:34;;;;;;;;;;;;;;;26.59;24.98;101369.16;5057462;28;1897;-41
2020/12/23 11:01:59;;;;;;;;;;;;;;;26.42;25.57;101361.00;5057064;28;843;-45
2020/12/23 11:04:25;;;;;;;;;;;;;;;26.83;25.17;101349.47;5057455;28;772;-42
2020/12/23 11:06:53;;;;;;;;;;;;;;;27.37;24.20;101355.41;5057003;28;1034;-40
2020/12/23 11:09:18;;;;;;;;;;;;;;;26.85;24.65;101352.84;5057244;28;828;-39
2020/12/23 11:11:48;;;;;;;;;;;;;;;26.52;24.82;101355.47;5057159;28;843;-40
2020/12/23 11:14:13;;;;;;;;;;;;;;;25.74;26.11;101345.47;5057153;28;812;-40
2020/12/23 11:16:38;;;;;;;;;;;;;;;26.14;25.93;101343.16;5055155;28;752;-42
2020/12/23 11:19:03;;;;;;;;;;;;;;;27.03;24.90;101341.06;5056287;28;1910;-43
2020/12/23 11:21:29;;;;;;;;;;;;;;;26.64;24.77;101345.22;5056473;28;951;-42
2020/12/23 11:23:54;;;;;;;;;;;;;;;26.28;25.64;101349.81;5056880;28;751;-42
2020/12/23 11:26:20;;;;;;;;;;;;;;;25.99;25.75;101347.50;5057220;28;879;-41
2020/12/23 11:28:45;;;;;;;;;;;;;;;25.10;27.56;101351.91;5056884;28;764;-42
2020/12/23 11:31:14;;;;;;;;;;;;;;;25.04;27.82;101345.28;5056778;28;751;-43
2020/12/23 11:33:40;;;;;;;;;;;;;;;25.94;26.47;101344.41;5056352;28;786;-40
2020/12/23 11:36:05;;;;;;;;;;;;;;;25.85;26.31;101330.91;5061571;28;968;-40
2020/12/23 11:38:30;;;;;;;;;;;;;;;26.43;25.21;101327.63;5056715;28;736;-39
2020/12/23 11:40:56;;;;;;;;;;;;;;;26.65;25.21;101319.91;5056698;28;1905;-43
2020/12/23 11:43:21;;;;;;;;;;;;;;;27.08;24.72;101322.50;5056349;28;1113;-43
2020/12/23 11:45:46;;;;;;;;;;;;;;;27.02;24.34;101324.03;5076719;28;779;-40
2020/12/23 11:48:12;;;;;;;;;;;;;;;26.76;24.82;101327.69;5076705;28;842;-42
2020/12/23 11:50:37;;;;;;;;;;;;;;;26.93;24.63;101322.31;5069248;28;884;-43
2020/12/23 11:53:02;;;;;;;;;;;;;;;26.94;24.68;101324.00;5056397;28;979;-40
2020/12/23 11:55:28;;;;;;;;;;;;;;;26.95;24.65;101333.78;5056412;28;815;-41
2020/12/23 11:57:53;;;;;;;;;;;;;;;26.99;24.68;101326.19;5056032;28;824;-41
2020/12/23 12:00:18;;;;;;;;;;;;;;;27.02;24.72;101325.91;5056217;28;1910;-45
2020/12/23 12:02:43;;;;;;;;;;;;;;;26.97;24.87;101337.16;5056736;28;811;-44
2020/12/23 12:05:12;;;;;;;;;;;;;;;26.95;25.11;101346.44;5055766;28;979;-45
2020/12/23 12:07:37;;;;;;;;;;;;;;;26.98;24.95;101338.00;5067169;28;823;-41
2020/12/23 12:10:03;;;;;;;;;;;;;;;27.00;24.96;101341.38;5076512;28;863;-41
2020/12/23 12:12:29;;;;;;;;;;;;;;;27.00;24.86;101338.69;5076078;28;764;-43
2020/12/23 12:14:54;;;;;;;;;;;;;;;27.00;24.71;101342.22;5076459;28;764;-41
2020/12/23 12:17:19;;;;;;;;;;;;;;;26.99;25.06;101339.69;5075857;28;764;-42
2020/12/23 12:19:44;;;;;;;;;;;;;;;27.01;24.85;101338.53;5075857;28;1917;-41
2020/12/23 12:22:10;;;;;;;;;;;;;;;26.95;24.84;101335.63;5055948;28;1101;-41
2020/12/23 12:24:35;;;;;;;;;;;;;;;27.04;24.81;101328.41;5056323;28;792;-42
2020/12/23 12:27:01;;;;;;;;;;;;;;;27.00;24.81;101328.72;5056352;28;775;-42
2020/12/23 12:29:26;;;;;;;;;;;;;;;26.97;24.53;101329.06;5056103;28;768;-41
2020/12/23 12:31:52;;;;;;;;;;;;;;;27.01;24.70;101335.84;5056031;28;836;-40
2020/12/23 12:34:17;;;;;;;;;;;;;;;27.02;24.79;101342.94;5055710;28;1146;-41
2020/12/23 12:36:42;;;;;;;;;;;;;;;26.99;24.75;101342.41;5055471;28;983;-42
2020/12/23 12:39:08;;;;;;;;;;;;;;;26.98;24.67;101346.09;5061588;28;1905;-39
2020/12/23 12:41:33;;;;;;;;;;;;;;;26.99;24.75;101345.09;5076082;28;811;-41
2020/12/23 12:43:58;;;;;;;;;;;;;;;27.08;24.74;101348.66;5076013;28;1190;-42
2020/12/23 12:46:23;;;;;;;;;;;;;;;26.97;24.73;101356.06;5076175;28;816;-41
2020/12/23 12:48:49;;;;;;;;;;;;;;;26.97;24.87;101345.28;5075978;28;744;-41